createdAt,value
2024-04-23T00:01:19.655Z,3.40
2024-04-23T00:03:46.678Z,3.40
2024-04-23T00:06:13.788Z,3.33
2024-04-23T00:08:40.759Z,3.60
2024-04-23T00:11:07.933Z,3.22
2024-04-23T00:13:35.122Z,3.60
2024-04-23T00:16:02.178Z,3.60
2024-04-23T00:18:29.331Z,3.60
2024-04-23T00:20:57.229Z,3.67
2024-04-23T00:23:24.470Z,3.25
2024-04-23T00:25:51.542Z,3.30
2024-04-23T00:28:18.615Z,3.55
2024-04-23T00:30:45.573Z,3.53
2024-04-23T00:33:12.675Z,3.67
2024-04-23T00:35:39.756Z,3.72
2024-04-23T00:38:06.736Z,3.40
2024-04-23T00:40:33.798Z,3.65
2024-04-23T00:43:00.819Z,3.80
2024-04-23T00:45:34.611Z,4.00
2024-04-23T00:48:02.277Z,3.50
2024-04-23T00:50:29.772Z,3.83
2024-04-23T00:52:57.339Z,4.10
2024-04-23T00:55:25.314Z,3.42
2024-04-23T00:57:52.460Z,3.60
2024-04-23T01:33:55.864Z,3.58
2024-04-23T01:36:23.413Z,2.97
2024-04-23T01:38:52.059Z,3.00
2024-04-23T01:41:19.713Z,3.55
2024-04-23T01:43:47.728Z,3.33
2024-04-23T01:46:15.047Z,3.60
2024-04-23T01:48:42.157Z,3.28
2024-04-23T01:51:09.394Z,3.20
2024-04-23T01:53:36.809Z,3.70
2024-04-23T01:56:04.059Z,3.10
2024-04-23T01:58:31.118Z,3.10
2024-04-23T02:00:59.261Z,3.10
2024-04-23T02:03:26.997Z,3.10
2024-04-23T02:05:57.769Z,3.23
2024-04-23T02:08:24.803Z,3.40
2024-04-23T02:10:51.951Z,3.15
2024-04-23T02:13:18.972Z,3.17
2024-04-23T02:15:45.939Z,3.28
2024-04-23T02:18:13.126Z,2.85
2024-04-23T02:20:59.462Z,3.10
2024-04-23T02:23:26.425Z,3.38
2024-04-23T02:25:53.425Z,3.23
2024-04-23T02:28:20.473Z,3.35
2024-04-23T02:30:47.412Z,3.22
2024-04-23T02:33:14.462Z,3.45
2024-04-23T02:35:41.469Z,3.05
2024-04-23T02:38:08.468Z,3.03
2024-04-23T02:40:35.625Z,2.92
2024-04-23T02:43:02.745Z,2.97
2024-04-23T02:45:31.787Z,3.00
2024-04-23T02:47:59.064Z,3.33
2024-04-23T02:50:26.058Z,3.22
2024-04-23T02:52:53.083Z,3.28
2024-04-23T02:55:20.118Z,3.15
2024-04-23T02:57:47.112Z,3.30
2024-04-23T03:00:14.612Z,2.97
2024-04-23T03:02:41.671Z,3.33
2024-04-23T03:05:08.781Z,3.00
2024-04-23T03:07:35.776Z,3.03
2024-04-23T03:10:02.924Z,3.15
2024-04-23T03:12:29.904Z,3.70
2024-04-23T03:14:56.845Z,3.30
2024-04-23T03:17:23.872Z,3.13
2024-04-23T03:19:50.869Z,3.97
2024-04-23T03:22:17.821Z,3.50
2024-04-23T03:24:44.855Z,3.78
2024-04-23T03:27:11.924Z,3.25
2024-04-23T03:29:39.258Z,3.63
2024-04-23T03:32:06.608Z,3.60
2024-04-23T03:34:33.981Z,3.70
2024-04-23T03:37:01.216Z,3.58
2024-04-23T03:39:28.263Z,3.25
2024-04-23T03:41:59.723Z,3.83
2024-04-23T03:44:27.704Z,3.65
2024-04-23T03:46:55.714Z,3.88
2024-04-23T03:49:23.194Z,4.10
2024-04-23T03:51:50.153Z,3.73
2024-04-23T03:54:17.150Z,4.00
2024-04-23T03:56:44.147Z,4.47
2024-04-23T03:59:11.144Z,4.03
2024-04-23T04:01:38.437Z,4.10
2024-04-23T04:04:24.001Z,4.40
2024-04-23T04:06:51.009Z,3.85
2024-04-23T04:09:18.016Z,3.70
2024-04-23T04:11:45.209Z,3.20
2024-04-23T04:14:12.417Z,3.55
2024-04-23T04:16:39.427Z,3.47
2024-04-23T04:19:06.585Z,3.55
2024-04-23T04:21:33.639Z,3.85
2024-04-23T04:24:00.698Z,3.60
2024-04-23T04:26:27.673Z,3.50
2024-04-23T04:28:54.878Z,3.40
2024-04-23T04:31:21.941Z,4.07
2024-04-23T04:33:48.948Z,3.60
2024-04-23T04:36:16.042Z,4.00
2024-04-23T04:38:43.052Z,4.20
2024-04-23T04:41:10.094Z,3.55
2024-04-23T04:43:37.118Z,4.32
2024-04-23T04:46:04.235Z,3.93
2024-04-23T04:48:31.204Z,4.35
2024-04-23T04:50:58.597Z,3.80
2024-04-23T04:53:25.583Z,3.95
2024-04-23T04:55:52.657Z,3.80
2024-04-23T04:58:19.703Z,3.78
2024-04-23T05:00:46.727Z,3.90
2024-04-23T05:03:13.720Z,4.45
2024-04-23T05:05:40.711Z,3.75
2024-04-23T05:08:08.144Z,4.15
2024-04-23T05:10:35.482Z,3.88
2024-04-23T05:13:02.462Z,4.10
2024-04-23T05:15:29.448Z,3.70
2024-04-23T05:17:56.547Z,4.53
2024-04-23T05:20:23.689Z,4.10
2024-04-23T05:22:50.687Z,3.63
2024-04-23T05:25:17.820Z,3.78
2024-04-23T05:27:44.792Z,3.65
2024-04-23T05:30:31.865Z,3.67
2024-04-23T05:32:58.920Z,4.13
2024-04-23T05:35:25.945Z,4.65
2024-04-23T05:37:52.921Z,4.03
2024-04-23T05:40:19.910Z,4.30
2024-04-23T05:42:46.992Z,4.20
2024-04-23T05:45:14.047Z,3.97
2024-04-23T05:48:19.003Z,4.07
2024-04-23T05:51:42.717Z,4.35
2024-04-23T05:55:06.223Z,4.70
2024-04-23T05:57:52.125Z,4.75
2024-04-23T06:00:19.146Z,4.75
2024-04-23T06:02:46.661Z,4.38
2024-04-23T06:05:13.801Z,5.20
2024-04-23T06:07:42.608Z,5.72
2024-04-23T06:10:09.917Z,4.93
2024-04-23T06:12:36.907Z,5.55
2024-04-23T06:15:04.294Z,5.72
2024-04-23T06:17:41.664Z,6.15
2024-04-23T06:20:13.487Z,5.55
2024-04-23T06:22:40.821Z,5.10
2024-04-23T06:25:09.076Z,5.90
2024-04-23T06:27:37.793Z,5.72
2024-04-23T06:30:07.518Z,6.57
2024-04-23T06:32:34.956Z,6.15
2024-04-23T06:35:02.449Z,5.82
2024-04-23T06:37:29.814Z,6.22
2024-04-23T06:40:02.065Z,5.90
2024-04-23T06:42:29.041Z,6.47
2024-04-23T06:44:56.389Z,6.78
2024-04-23T06:47:23.378Z,6.67
2024-04-23T06:49:50.452Z,5.78
2024-04-23T06:52:18.344Z,6.55
2024-04-23T06:54:45.672Z,6.13
2024-04-23T06:57:12.730Z,6.80
2024-04-23T06:59:43.987Z,6.30
2024-04-23T07:02:12.219Z,7.20
2024-04-23T07:04:39.388Z,6.60
2024-04-23T07:07:06.630Z,6.72
2024-04-23T07:09:33.847Z,7.10
2024-04-23T07:12:00.861Z,6.47
2024-04-23T07:14:27.886Z,7.05
2024-04-23T07:16:55.062Z,6.40
2024-04-23T07:19:22.199Z,6.65
2024-04-23T07:21:49.247Z,6.38
2024-04-23T07:24:16.204Z,6.13
2024-04-23T07:26:43.701Z,5.95
2024-04-23T07:29:10.864Z,6.07
2024-04-23T07:31:37.993Z,5.90
2024-04-23T07:34:05.103Z,6.15
2024-04-23T07:36:32.339Z,5.88
2024-04-23T07:38:59.311Z,6.50
2024-04-23T07:41:26.309Z,6.65
2024-04-23T07:43:53.427Z,6.55
2024-04-23T07:46:20.469Z,5.93
2024-04-23T07:48:47.577Z,5.50
2024-04-23T07:51:14.604Z,5.53
2024-04-23T07:53:44.645Z,5.78
2024-04-23T07:56:12.671Z,5.38
2024-04-23T07:58:39.995Z,4.72
2024-04-23T08:01:07.163Z,5.03
2024-04-23T08:03:35.671Z,5.13
2024-04-23T08:06:03.739Z,4.65
2024-04-23T08:08:30.849Z,5.32
2024-04-23T08:10:57.980Z,5.35
2024-04-23T08:13:25.038Z,4.63
2024-04-23T08:15:56.560Z,5.32
2024-04-23T08:18:23.619Z,5.60
2024-04-23T08:20:52.057Z,5.37
2024-04-23T08:23:20.713Z,4.45
2024-04-23T08:25:49.117Z,3.72
2024-04-23T08:28:16.309Z,3.08
2024-04-23T08:30:44.588Z,2.72
2024-04-23T08:33:11.934Z,3.30
2024-04-23T08:35:38.987Z,3.80
2024-04-23T08:38:06.103Z,4.00
2024-04-23T08:40:35.653Z,3.55
2024-04-23T08:43:10.434Z,3.40
2024-04-23T08:45:39.233Z,3.75
2024-04-23T08:48:07.102Z,3.63
2024-04-23T08:50:36.206Z,3.78
2024-04-23T08:53:06.214Z,3.83
2024-04-23T08:55:39.436Z,3.38
2024-04-23T08:58:06.688Z,3.27
2024-04-23T09:00:38.405Z,3.03
2024-04-23T09:03:15.747Z,3.72
2024-04-23T09:05:43.653Z,3.42
2024-04-23T09:08:11.089Z,3.00
2024-04-23T09:10:38.135Z,3.38
2024-04-23T09:13:05.379Z,3.25
2024-04-23T09:15:32.473Z,3.20
2024-04-23T09:17:59.584Z,3.03
2024-04-23T09:20:26.802Z,3.28
2024-04-23T09:22:55.061Z,3.00
2024-04-23T09:25:22.061Z,2.90
2024-04-23T09:27:49.314Z,3.10
2024-04-23T09:30:27.008Z,3.17
2024-04-23T09:33:06.621Z,2.90
2024-04-23T09:35:33.838Z,2.95
2024-04-23T09:38:00.940Z,3.00
2024-04-23T09:40:28.554Z,2.80
2024-04-23T09:42:55.771Z,3.07
2024-04-23T09:45:32.369Z,2.78
2024-04-23T09:47:59.514Z,2.70
2024-04-23T09:50:29.863Z,2.80
2024-04-23T09:53:05.012Z,3.22
2024-04-23T09:55:32.486Z,2.97
2024-04-23T09:57:59.578Z,2.95
2024-04-23T10:00:30.983Z,2.55
2024-04-23T10:03:11.895Z,2.60
2024-04-23T10:05:47.996Z,3.20
2024-04-23T10:08:32.771Z,2.90
2024-04-23T10:11:02.246Z,2.67
2024-04-23T10:13:52.053Z,3.00
2024-04-23T10:16:31.228Z,2.83
2024-04-23T10:19:04.027Z,2.95
2024-04-23T10:21:37.439Z,3.10
2024-04-23T10:24:09.018Z,3.20
2024-04-23T10:26:42.131Z,2.75
2024-04-23T10:29:10.930Z,2.73
2024-04-23T10:31:38.359Z,2.50
2024-04-23T10:34:07.565Z,2.85
2024-04-23T10:36:40.839Z,2.88
2024-04-23T10:39:08.582Z,3.10
2024-04-23T10:41:37.635Z,2.67
2024-04-23T10:44:07.286Z,3.13
2024-04-23T10:46:34.426Z,2.75
2024-04-23T10:49:11.504Z,3.00
2024-04-23T10:51:38.656Z,2.90
2024-04-23T10:54:10.669Z,2.53
2024-04-23T10:56:38.895Z,2.55
2024-04-23T10:59:12.566Z,2.60
2024-04-23T11:02:11.991Z,2.35
2024-04-23T11:04:49.005Z,2.55
2024-04-23T11:07:27.709Z,2.80
2024-04-23T11:10:01.181Z,2.22
2024-04-23T11:12:31.149Z,2.17
2024-04-23T11:14:59.601Z,2.17
2024-04-23T11:17:27.336Z,2.22
2024-04-23T11:19:57.571Z,2.30
2024-04-23T11:22:51.376Z,2.85
2024-04-23T11:25:29.674Z,2.20
2024-04-23T11:27:56.915Z,2.00
2024-04-23T11:30:26.904Z,2.15
2024-04-23T11:32:54.802Z,2.17
2024-04-23T11:35:25.235Z,1.75
2024-04-23T11:37:58.761Z,1.90
2024-04-23T11:40:25.824Z,2.00
2024-04-23T11:42:53.126Z,1.83
2024-04-23T11:45:21.145Z,2.30
2024-04-23T11:47:52.818Z,2.28
2024-04-23T11:50:20.037Z,2.10
2024-04-23T11:52:47.282Z,1.73
2024-04-23T11:55:14.348Z,2.28
2024-04-23T11:57:41.482Z,1.50
2024-04-23T12:00:09.021Z,1.60
2024-04-23T12:02:36.167Z,2.08
2024-04-23T12:05:05.804Z,1.60
2024-04-23T12:07:35.366Z,1.70
2024-04-23T12:10:05.751Z,1.30
2024-04-23T12:12:37.518Z,1.70
2024-04-23T12:15:06.858Z,1.60
2024-04-23T12:17:37.755Z,1.50
2024-04-23T12:20:05.064Z,1.80
2024-04-23T12:22:33.169Z,1.60
2024-04-23T12:25:01.700Z,1.73
2024-04-23T12:27:28.695Z,1.70
2024-04-23T12:30:10.708Z,2.00
2024-04-23T12:32:41.995Z,1.70
2024-04-23T12:35:09.913Z,1.63
2024-04-23T12:37:37.385Z,1.40
2024-04-23T12:40:05.310Z,1.60
2024-04-23T12:42:42.064Z,1.40
2024-04-23T12:45:10.552Z,1.80
2024-04-23T12:47:38.010Z,1.70
2024-04-23T12:50:05.400Z,1.75
2024-04-23T12:52:32.894Z,1.80
2024-04-23T12:54:59.936Z,1.75
2024-04-23T12:57:27.050Z,1.42
2024-04-23T12:59:54.052Z,1.60
2024-04-23T13:02:21.184Z,1.40
2024-04-23T13:04:48.379Z,1.30
2024-04-23T13:07:15.453Z,1.77
2024-04-23T13:09:42.468Z,1.58
2024-04-23T13:12:11.303Z,1.50
2024-04-23T13:14:39.696Z,1.80
2024-04-23T13:17:07.020Z,1.60
2024-04-23T13:19:34.301Z,1.50
2024-04-23T13:22:03.643Z,1.40
2024-04-23T13:24:34.062Z,1.40
2024-04-23T13:27:01.288Z,1.60
2024-04-23T13:29:31.869Z,1.27
2024-04-23T13:32:01.173Z,1.80
2024-04-23T13:34:28.526Z,1.42
2024-04-23T13:36:55.634Z,1.23
2024-04-23T13:39:22.843Z,1.65
2024-04-23T13:41:50.979Z,1.50
2024-04-23T13:44:18.005Z,1.60
2024-04-23T13:46:46.554Z,1.40
2024-04-23T13:49:15.793Z,1.43
2024-04-23T13:51:42.900Z,1.50
2024-04-23T13:54:10.297Z,1.50
2024-04-23T13:56:37.325Z,1.75
2024-04-23T13:59:04.602Z,1.73
2024-04-23T14:01:32.822Z,1.95
2024-04-23T14:04:00.220Z,1.55
2024-04-23T14:06:27.594Z,1.70
2024-04-23T14:08:54.759Z,1.58
2024-04-23T14:11:21.963Z,1.42
2024-04-23T14:13:49.391Z,1.55
2024-04-23T14:16:16.542Z,1.30
2024-04-23T14:18:43.604Z,1.60
2024-04-23T14:21:10.785Z,1.58
2024-04-23T14:23:39.595Z,1.30
2024-04-23T14:26:07.601Z,1.10
2024-04-23T14:28:37.916Z,1.58
2024-04-23T14:31:05.559Z,1.58
2024-04-23T14:33:33.588Z,1.33
2024-04-23T14:36:03.102Z,1.50
2024-04-23T14:38:32.082Z,1.50
2024-04-23T14:41:03.744Z,1.50
2024-04-23T14:43:31.722Z,1.27
2024-04-23T14:45:59.244Z,1.37
2024-04-23T14:48:26.849Z,1.30
2024-04-23T14:50:57.503Z,1.50
2024-04-23T14:53:24.820Z,1.20
2024-04-23T14:56:19.451Z,1.10
2024-04-23T14:58:50.940Z,1.13
2024-04-23T15:01:18.333Z,1.40
2024-04-23T15:03:45.634Z,1.10
2024-04-23T15:06:13.167Z,1.30
2024-04-23T15:08:41.867Z,1.40
2024-04-23T15:11:10.444Z,1.10
2024-04-23T15:13:38.633Z,1.10
2024-04-23T15:16:10.367Z,1.13
2024-04-23T15:18:39.087Z,1.10
2024-04-23T15:21:08.638Z,1.40
2024-04-23T15:23:36.011Z,3.28
2024-04-23T15:26:04.458Z,1.42
2024-04-23T15:28:33.313Z,1.13
2024-04-23T15:31:05.008Z,1.20
2024-04-23T15:33:36.304Z,1.38
2024-04-23T15:36:10.238Z,1.30
2024-04-23T15:38:43.665Z,1.40
2024-04-23T15:41:11.870Z,1.40
2024-04-23T15:43:39.137Z,1.20
2024-04-23T15:46:13.424Z,1.10
2024-04-23T15:48:40.487Z,1.30
2024-04-23T15:51:07.613Z,1.50
2024-04-23T15:53:34.737Z,2.00
2024-04-23T15:56:02.774Z,1.60
2024-04-23T15:58:30.291Z,1.52
2024-04-23T16:01:08.770Z,1.33
2024-04-23T16:03:37.005Z,1.37
2024-04-23T16:06:05.718Z,1.30
2024-04-23T16:08:33.810Z,1.60
2024-04-23T16:11:02.632Z,1.33
2024-04-23T16:13:31.054Z,1.80
2024-04-23T16:15:59.341Z,1.48
2024-04-23T16:18:31.792Z,2.10
2024-04-23T16:21:09.537Z,1.70
2024-04-23T16:23:39.046Z,1.63
2024-04-23T16:26:11.581Z,1.40
2024-04-23T16:28:39.563Z,2.05
2024-04-23T16:31:08.461Z,1.70
2024-04-23T16:33:39.985Z,1.67
2024-04-23T16:36:09.344Z,1.52
2024-04-23T16:38:37.898Z,1.73
2024-04-23T16:41:07.287Z,1.80
2024-04-23T16:43:35.126Z,1.67
2024-04-23T16:46:10.386Z,1.70
2024-04-23T16:48:38.429Z,1.90
2024-04-23T16:51:07.904Z,1.70
2024-04-23T16:53:35.617Z,1.92
2024-04-23T16:56:03.101Z,2.05
2024-04-23T16:58:30.280Z,1.83
2024-04-23T17:00:57.443Z,1.50
2024-04-23T17:03:24.715Z,1.63
2024-04-23T17:05:51.953Z,1.60
2024-04-23T17:08:19.072Z,1.50
2024-04-23T17:10:47.285Z,1.80
2024-04-23T17:13:15.210Z,2.00
2024-04-23T17:15:43.847Z,2.13
2024-04-23T17:18:11.483Z,1.80
2024-04-23T17:20:39.000Z,2.00
2024-04-23T17:23:06.760Z,1.88
2024-04-23T17:25:37.711Z,1.90
2024-04-23T17:28:05.769Z,2.10
2024-04-23T17:30:32.900Z,1.90
2024-04-23T17:33:00.000Z,1.90
2024-04-23T17:35:27.089Z,2.30
2024-04-23T17:37:54.151Z,1.63
2024-04-23T17:40:21.229Z,2.05
2024-04-23T17:42:48.237Z,2.10
2024-04-23T17:45:15.420Z,1.80
2024-04-23T17:47:42.681Z,1.93
2024-04-23T17:50:11.868Z,2.03
2024-04-23T17:52:39.106Z,2.60
2024-04-23T17:55:08.479Z,2.40
2024-04-23T17:57:35.818Z,2.17
2024-04-23T18:00:03.777Z,2.50
2024-04-23T18:02:39.758Z,1.77
2024-04-23T18:05:08.113Z,1.70
2024-04-23T18:07:35.244Z,2.30
2024-04-23T18:10:03.094Z,2.10
2024-04-23T18:12:30.279Z,1.90
2024-04-23T18:14:58.135Z,1.70
2024-04-23T18:17:25.819Z,1.92
2024-04-23T18:19:53.071Z,2.03
2024-04-23T18:22:20.308Z,1.85
2024-04-23T18:24:47.322Z,2.00
2024-04-23T18:27:16.875Z,2.00
2024-04-23T18:29:43.977Z,2.03
2024-04-23T18:32:11.704Z,1.88
2024-04-23T18:34:38.977Z,2.15
2024-04-23T18:37:06.144Z,1.85
2024-04-23T18:39:33.178Z,1.83
2024-04-23T18:42:01.199Z,2.08
2024-04-23T18:44:28.340Z,2.00
2024-04-23T18:46:55.529Z,2.20
2024-04-23T18:49:22.588Z,2.00
2024-04-23T18:51:49.867Z,2.13
2024-04-23T18:54:16.998Z,1.98
2024-04-23T18:56:44.469Z,2.20
2024-04-23T18:59:11.653Z,2.00
2024-04-23T19:01:41.089Z,2.08
2024-04-23T19:04:08.100Z,1.93
2024-04-23T19:06:35.128Z,2.10
2024-04-23T19:09:02.187Z,2.03
2024-04-23T19:11:31.041Z,2.30
2024-04-23T19:14:07.746Z,2.50
2024-04-23T19:16:44.027Z,2.50
2024-04-23T19:19:11.527Z,2.45
2024-04-23T19:21:38.756Z,3.20
2024-04-23T19:24:06.347Z,2.92
2024-04-23T19:26:33.423Z,2.78
2024-04-23T19:29:00.789Z,2.60
2024-04-23T19:31:27.929Z,3.00
2024-04-23T19:33:55.033Z,2.88
2024-04-23T19:36:23.416Z,3.80
2024-04-23T19:38:50.478Z,3.70
2024-04-23T19:41:17.764Z,3.70
2024-04-23T19:43:52.261Z,4.10
2024-04-23T19:46:24.311Z,3.55
2024-04-23T19:48:52.086Z,3.53
2024-04-23T19:51:22.647Z,3.05
2024-04-23T19:53:50.242Z,3.08
2024-04-23T19:56:51.047Z,2.95
2024-04-23T19:59:18.262Z,3.22
2024-04-23T20:01:45.368Z,2.85
2024-04-23T20:04:12.672Z,2.65
2024-04-23T20:06:39.843Z,3.00
2024-04-23T20:09:09.698Z,3.10
2024-04-23T20:11:37.381Z,3.50
2024-04-23T20:14:04.772Z,3.20
2024-04-23T20:16:31.926Z,3.20
2024-04-23T20:18:59.043Z,3.90
2024-04-23T20:21:26.208Z,3.23
2024-04-23T20:23:54.603Z,3.15
2024-04-23T20:26:25.272Z,3.42
2024-04-23T20:28:53.873Z,3.58
2024-04-23T20:31:21.811Z,3.65
2024-04-23T20:33:49.420Z,3.95
2024-04-23T20:36:16.759Z,4.00
2024-04-23T20:38:43.838Z,4.55
2024-04-23T20:41:11.391Z,4.25
2024-04-23T20:43:38.636Z,3.75
2024-04-23T20:46:07.544Z,3.70
2024-04-23T20:48:35.444Z,4.18
2024-04-23T20:51:03.027Z,4.50
2024-04-23T20:53:30.148Z,4.00
2024-04-23T20:55:57.261Z,3.58
2024-04-23T20:58:24.505Z,3.10
2024-04-23T21:00:51.625Z,3.60
2024-04-23T21:03:19.013Z,3.20
2024-04-23T21:05:46.198Z,3.08
2024-04-23T21:08:13.332Z,3.00
2024-04-23T21:10:40.566Z,3.00
2024-04-23T21:13:07.584Z,3.17
2024-04-23T21:15:35.356Z,3.00
2024-04-23T21:18:02.719Z,3.40
2024-04-23T21:20:30.103Z,3.13
2024-04-23T21:22:57.302Z,3.10
2024-04-23T21:25:24.590Z,3.65
2024-04-23T21:27:51.639Z,3.30
2024-04-23T21:30:18.668Z,3.30
2024-04-23T21:32:46.007Z,3.80
2024-04-23T21:35:13.505Z,3.30
2024-04-23T21:37:40.553Z,3.53
2024-04-23T21:40:08.270Z,3.20
2024-04-23T21:42:41.127Z,3.50
2024-04-23T21:45:10.113Z,3.47
2024-04-23T21:47:37.911Z,3.40
2024-04-23T21:50:05.916Z,3.25
2024-04-23T21:52:42.049Z,3.65
2024-04-23T21:55:10.593Z,3.40
2024-04-23T21:57:37.995Z,3.45
2024-04-23T22:00:06.910Z,4.53
2024-04-23T22:02:37.831Z,7.40
2024-04-23T22:05:07.409Z,7.95
2024-04-23T22:07:34.960Z,7.13
2024-04-23T22:10:02.264Z,5.50
2024-04-23T22:12:29.335Z,4.20
2024-04-23T22:14:56.353Z,3.88
2024-04-23T22:17:23.692Z,3.67
2024-04-23T22:19:50.966Z,3.97
2024-04-23T22:22:18.051Z,3.53
2024-04-23T22:24:45.193Z,3.33
2024-04-23T22:27:12.234Z,3.80
2024-04-23T22:29:39.313Z,3.50
2024-04-23T22:32:06.808Z,3.55
2024-04-23T22:34:33.890Z,3.58
2024-04-23T22:37:00.945Z,4.07
2024-04-23T22:39:28.008Z,3.58
2024-04-23T22:41:55.046Z,3.95
2024-04-23T22:44:22.203Z,3.67
2024-04-23T22:46:49.279Z,4.05
2024-04-23T22:49:16.299Z,3.58
2024-04-23T22:51:48.458Z,3.83
2024-04-23T22:54:18.354Z,3.67
2024-04-23T22:56:45.647Z,3.90
2024-04-23T22:59:12.692Z,3.70
2024-04-23T23:01:39.756Z,3.65
2024-04-23T23:04:06.751Z,3.83
2024-04-23T23:06:35.942Z,3.63
2024-04-23T23:09:04.386Z,4.13
2024-04-23T23:11:31.652Z,4.32
2024-04-23T23:13:58.823Z,4.10
2024-04-23T23:16:25.961Z,3.97
2024-04-23T23:18:53.024Z,4.18
2024-04-23T23:21:20.062Z,4.22
2024-04-23T23:23:47.068Z,4.15
2024-04-23T23:26:14.099Z,4.57
2024-04-23T23:28:41.460Z,4.05
2024-04-23T23:31:08.613Z,4.55
2024-04-23T23:33:35.903Z,4.05
2024-04-23T23:36:03.439Z,4.28
2024-04-23T23:38:30.453Z,4.35
2024-04-23T23:40:57.478Z,4.50
2024-04-23T23:43:24.555Z,4.55
2024-04-23T23:45:51.581Z,4.28
2024-04-23T23:48:19.072Z,4.37
2024-04-23T23:50:46.299Z,4.38
2024-04-23T23:53:13.356Z,4.50
2024-04-23T23:55:40.460Z,4.60
2024-04-23T23:58:07.508Z,4.60
